createdAt,value
2022-10-20T00:08:04.635Z,15.80
2022-10-20T00:18:11.721Z,18.70
2022-10-20T00:28:18.721Z,18.00
2022-10-20T00:38:25.740Z,17.70
2022-10-20T00:48:33.868Z,18.00
2022-10-20T00:58:41.903Z,18.00
2022-10-20T01:08:49.749Z,17.60
2022-10-20T01:18:55.500Z,14.00
2022-10-20T01:29:06.704Z,14.50
2022-10-20T01:39:17.831Z,12.20
2022-10-20T01:49:26.450Z,12.60
2022-10-20T01:59:48.979Z,14.90
2022-10-20T02:09:56.427Z,13.70
2022-10-20T02:20:06.259Z,13.30
2022-10-20T02:40:22.459Z,12.60
2022-10-20T02:50:29.473Z,11.20
2022-10-20T03:00:36.483Z,12.30
2022-10-20T03:10:43.754Z,15.50
2022-10-20T03:20:52.255Z,14.40
2022-10-20T03:30:59.320Z,14.10
2022-10-20T03:41:06.317Z,14.00
2022-10-20T03:51:15.671Z,16.60
2022-10-20T04:11:28.073Z,15.90
2022-10-20T04:21:34.994Z,16.90
2022-10-20T04:31:45.367Z,16.80
2022-10-20T04:41:55.243Z,18.20
2022-10-20T04:52:01.416Z,27.30
2022-10-20T05:02:08.738Z,52.60
2022-10-20T05:12:16.013Z,71.80
2022-10-20T05:22:23.183Z,51.80
2022-10-20T05:32:30.413Z,40.00
2022-10-20T05:42:37.979Z,74.50
2022-10-20T05:52:45.485Z,69.50
2022-10-20T06:02:54.999Z,54.80
2022-10-20T06:13:02.110Z,51.80
2022-10-20T06:23:09.210Z,36.60
2022-10-20T06:43:23.528Z,35.00
2022-10-20T06:53:32.080Z,44.50
2022-10-20T07:03:40.464Z,27.40
2022-10-20T07:13:49.426Z,23.70
2022-10-20T07:23:56.479Z,20.90
2022-10-20T07:34:23.965Z,23.70
2022-10-20T07:44:31.953Z,25.40
2022-10-20T07:54:38.965Z,24.10
2022-10-20T08:04:46.212Z,22.90
2022-10-20T08:25:20.903Z,14.00
2022-10-20T08:45:38.342Z,14.60
2022-10-20T08:55:46.789Z,11.50
2022-10-20T09:05:56.956Z,10.70
2022-10-20T09:16:08.114Z,9.90
2022-10-20T09:26:24.909Z,2.90
2022-10-20T09:36:44.731Z,3.10
2022-10-20T09:57:05.009Z,3.00
2022-10-20T10:07:17.288Z,2.30
2022-10-20T10:17:30.653Z,2.60
2022-10-20T10:27:39.058Z,2.40
2022-10-20T10:37:48.108Z,3.30
2022-10-20T10:48:09.568Z,1.50
2022-10-20T10:58:23.133Z,1.10
2022-10-20T11:08:43.032Z,1.40
2022-10-20T11:19:12.890Z,1.10
2022-10-20T11:29:25.415Z,1.60
2022-10-20T11:39:35.671Z,3.00
2022-10-20T11:49:43.643Z,1.80
2022-10-20T12:10:29.333Z,1.50
2022-10-20T12:20:56.840Z,2.20
2022-10-20T12:31:05.768Z,1.70
2022-10-20T12:41:27.399Z,1.70
2022-10-20T12:51:36.271Z,1.50
2022-10-20T13:02:13.930Z,2.20
2022-10-20T13:12:40.994Z,2.00
2022-10-20T13:22:47.102Z,1.80
2022-10-20T13:33:11.253Z,2.20
2022-10-20T13:43:36.840Z,2.90
2022-10-20T13:53:44.740Z,1.80
2022-10-20T14:03:52.932Z,2.10
2022-10-20T14:25:50.077Z,1.60
2022-10-20T14:36:02.856Z,3.00
2022-10-20T14:46:10.163Z,2.50
2022-10-20T14:56:23.203Z,3.40
2022-10-20T15:06:30.822Z,3.00
2022-10-20T15:16:36.984Z,4.50
2022-10-20T15:36:48.938Z,6.60
2022-10-20T15:46:58.446Z,6.10
2022-10-20T15:57:05.757Z,6.70
2022-10-20T16:07:12.925Z,10.30
2022-10-20T16:17:20.257Z,12.80
2022-10-20T16:27:27.427Z,11.30
2022-10-20T16:37:35.531Z,22.60
2022-10-20T16:47:43.147Z,32.00
2022-10-20T16:57:52.079Z,39.50
2022-10-20T17:07:59.380Z,39.40
2022-10-20T17:18:05.302Z,21.60
2022-10-20T17:28:12.476Z,22.80
2022-10-20T17:38:19.814Z,17.90
2022-10-20T17:48:27.430Z,16.50
2022-10-20T17:58:35.386Z,14.80
2022-10-20T18:08:43.431Z,16.70
2022-10-20T18:18:51.768Z,18.40
2022-10-20T18:39:04.213Z,14.20
2022-10-20T18:59:19.785Z,19.10
2022-10-20T19:09:27.022Z,19.60
2022-10-20T19:19:34.672Z,11.60
2022-10-20T19:29:41.095Z,13.70
2022-10-20T19:39:48.358Z,18.90
2022-10-20T19:49:55.915Z,21.10
2022-10-20T20:00:03.237Z,20.00
2022-10-20T20:10:10.946Z,15.80
2022-10-20T20:20:18.405Z,15.40
2022-10-20T20:30:25.610Z,19.60
2022-10-20T20:40:32.937Z,19.10
2022-10-20T20:50:40.292Z,19.80
2022-10-20T21:00:47.659Z,16.40
2022-10-20T21:10:54.785Z,13.30
2022-10-20T21:21:07.069Z,14.10
2022-10-20T21:31:15.060Z,14.00
2022-10-20T21:41:24.200Z,16.10
2022-10-20T21:51:33.628Z,15.00
2022-10-20T22:01:40.930Z,15.20
2022-10-20T22:11:51.178Z,12.50
2022-10-20T22:21:59.872Z,13.00
2022-10-20T22:32:05.379Z,14.60
2022-10-20T22:42:13.181Z,22.80
2022-10-20T22:52:20.504Z,24.20
2022-10-20T23:02:27.778Z,24.80
2022-10-20T23:12:36.006Z,20.10
2022-10-20T23:22:42.299Z,16.70
2022-10-20T23:32:49.250Z,15.70
2022-10-20T23:42:56.301Z,13.70
2022-10-20T23:53:03.361Z,16.80
